sensor_id;sensor_type;location;lat;lon;timestamp;temperature;humidity
39067;DHT22;24821;51.988;6.020;2023-02-15T00:00:03;3.50;99.90
39067;DHT22;24821;51.988;6.020;2023-02-15T00:02:29;3.60;99.90
39067;DHT22;24821;51.988;6.020;2023-02-15T00:04:54;3.60;99.90
39067;DHT22;24821;51.988;6.020;2023-02-15T00:07:21;3.60;99.90
39067;DHT22;24821;51.988;6.020;2023-02-15T00:09:47;3.50;99.90
39067;DHT22;24821;51.988;6.020;2023-02-15T00:12:13;3.60;99.90
39067;DHT22;24821;51.988;6.020;2023-02-15T00:14:39;3.50;99.90
39067;DHT22;24821;51.988;6.020;2023-02-15T00:17:05;3.50;99.90
39067;DHT22;24821;51.988;6.020;2023-02-15T00:19:30;3.50;99.90
39067;DHT22;24821;51.988;6.020;2023-02-15T00:21:56;3.50;99.90
39067;DHT22;24821;51.988;6.020;2023-02-15T00:24:22;3.50;99.90
39067;DHT22;24821;51.988;6.020;2023-02-15T00:26:48;3.50;99.90
39067;DHT22;24821;51.988;6.020;2023-02-15T00:29:15;3.50;99.90
39067;DHT22;24821;51.988;6.020;2023-02-15T00:31:41;3.50;99.90
39067;DHT22;24821;51.988;6.020;2023-02-15T00:34:11;3.40;99.90
39067;DHT22;24821;51.988;6.020;2023-02-15T00:36:38;3.50;99.90
39067;DHT22;24821;51.988;6.020;2023-02-15T00:39:04;3.40;99.90
39067;DHT22;24821;51.988;6.020;2023-02-15T00:41:32;3.40;99.90
39067;DHT22;24821;51.988;6.020;2023-02-15T00:43:58;3.40;99.90
39067;DHT22;24821;51.988;6.020;2023-02-15T00:46:23;3.40;99.90
39067;DHT22;24821;51.988;6.020;2023-02-15T00:48:49;3.40;99.90
39067;DHT22;24821;51.988;6.020;2023-02-15T00:51:15;3.40;99.90
39067;DHT22;24821;51.988;6.020;2023-02-15T00:53:40;3.30;99.90
39067;DHT22;24821;51.988;6.020;2023-02-15T00:56:06;3.30;99.90
39067;DHT22;24821;51.988;6.020;2023-02-15T00:58:31;3.30;99.90
39067;DHT22;24821;51.988;6.020;2023-02-15T01:01:03;3.30;99.90
39067;DHT22;24821;51.988;6.020;2023-02-15T01:03:30;3.30;99.90
39067;DHT22;24821;51.988;6.020;2023-02-15T01:05:56;3.30;99.90
39067;DHT22;24821;51.988;6.020;2023-02-15T01:08:21;3.30;99.90
39067;DHT22;24821;51.988;6.020;2023-02-15T01:10:47;3.30;99.90
39067;DHT22;24821;51.988;6.020;2023-02-15T01:13:14;3.30;99.90
39067;DHT22;24821;51.988;6.020;2023-02-15T01:15:40;3.30;99.90
39067;DHT22;24821;51.988;6.020;2023-02-15T01:18:05;3.30;99.90
39067;DHT22;24821;51.988;6.020;2023-02-15T01:20:35;3.30;99.90
39067;DHT22;24821;51.988;6.020;2023-02-15T01:23:02;3.30;99.90
39067;DHT22;24821;51.988;6.020;2023-02-15T01:25:28;3.20;99.90
39067;DHT22;24821;51.988;6.020;2023-02-15T01:27:53;3.20;99.90
39067;DHT22;24821;51.988;6.020;2023-02-15T01:30:19;3.20;99.90
39067;DHT22;24821;51.988;6.020;2023-02-15T01:32:44;3.20;99.90
39067;DHT22;24821;51.988;6.020;2023-02-15T01:35:11;3.20;99.90
39067;DHT22;24821;51.988;6.020;2023-02-15T01:37:36;3.10;99.90
39067;DHT22;24821;51.988;6.020;2023-02-15T01:40:05;3.10;99.90
39067;DHT22;24821;51.988;6.020;2023-02-15T01:42:31;3.10;99.90
39067;DHT22;24821;51.988;6.020;2023-02-15T01:44:59;3.10;99.90
39067;DHT22;24821;51.988;6.020;2023-02-15T01:50:01;3.10;99.90
39067;DHT22;24821;51.988;6.020;2023-02-15T01:52:29;3.00;99.90
39067;DHT22;24821;51.988;6.020;2023-02-15T01:54:55;3.00;99.90
39067;DHT22;24821;51.988;6.020;2023-02-15T01:57:24;3.00;99.90
39067;DHT22;24821;51.988;6.020;2023-02-15T01:59:55;3.00;99.90
39067;DHT22;24821;51.988;6.020;2023-02-15T02:02:22;3.00;99.90
39067;DHT22;24821;51.988;6.020;2023-02-15T02:04:56;3.00;99.90
39067;DHT22;24821;51.988;6.020;2023-02-15T02:07:28;3.00;99.90
39067;DHT22;24821;51.988;6.020;2023-02-15T02:09:55;3.00;99.90
39067;DHT22;24821;51.988;6.020;2023-02-15T02:12:21;3.00;99.90
39067;DHT22;24821;51.988;6.020;2023-02-15T02:14:48;3.00;99.90
39067;DHT22;24821;51.988;6.020;2023-02-15T02:20:13;3.00;99.90
39067;DHT22;24821;51.988;6.020;2023-02-15T02:36:31;2.90;99.90
39067;DHT22;24821;51.988;6.020;2023-02-15T02:44:43;2.90;99.90
39067;DHT22;24821;51.988;6.020;2023-02-15T02:47:16;2.80;99.90
39067;DHT22;24821;51.988;6.020;2023-02-15T02:49:44;2.80;99.90
39067;DHT22;24821;51.988;6.020;2023-02-15T02:54:57;2.90;99.90
39067;DHT22;24821;51.988;6.020;2023-02-15T02:57:24;2.80;99.90
39067;DHT22;24821;51.988;6.020;2023-02-15T02:59:50;2.80;99.90
39067;DHT22;24821;51.988;6.020;2023-02-15T03:02:23;2.80;99.90
39067;DHT22;24821;51.988;6.020;2023-02-15T03:04:55;2.80;99.90
39067;DHT22;24821;51.988;6.020;2023-02-15T03:07:31;2.80;99.90
39067;DHT22;24821;51.988;6.020;2023-02-15T03:09:59;2.70;99.90
39067;DHT22;24821;51.988;6.020;2023-02-15T03:12:29;2.70;99.90
39067;DHT22;24821;51.988;6.020;2023-02-15T03:17:32;2.70;99.90
39067;DHT22;24821;51.988;6.020;2023-02-15T03:20:02;2.70;99.90
39067;DHT22;24821;51.988;6.020;2023-02-15T03:22:33;2.70;99.90
39067;DHT22;24821;51.988;6.020;2023-02-15T03:25:13;2.70;99.90
39067;DHT22;24821;51.988;6.020;2023-02-15T03:27:44;2.70;99.90
39067;DHT22;24821;51.988;6.020;2023-02-15T03:30:12;2.70;99.90
39067;DHT22;24821;51.988;6.020;2023-02-15T03:32:41;2.70;99.90
39067;DHT22;24821;51.988;6.020;2023-02-15T03:35:08;2.70;99.90
39067;DHT22;24821;51.988;6.020;2023-02-15T03:37:44;2.60;99.90
39067;DHT22;24821;51.988;6.020;2023-02-15T03:40:31;2.60;99.90
39067;DHT22;24821;51.988;6.020;2023-02-15T03:43:34;2.60;99.90
39067;DHT22;24821;51.988;6.020;2023-02-15T03:46:14;2.60;99.90
39067;DHT22;24821;51.988;6.020;2023-02-15T03:48:44;2.60;99.90
39067;DHT22;24821;51.988;6.020;2023-02-15T03:51:18;2.50;99.90
39067;DHT22;24821;51.988;6.020;2023-02-15T03:54:13;2.60;99.90
39067;DHT22;24821;51.988;6.020;2023-02-15T03:57:01;2.50;99.90
39067;DHT22;24821;51.988;6.020;2023-02-15T03:59:45;2.50;99.90
39067;DHT22;24821;51.988;6.020;2023-02-15T04:02:35;2.40;99.90
39067;DHT22;24821;51.988;6.020;2023-02-15T04:05:03;2.40;99.90
39067;DHT22;24821;51.988;6.020;2023-02-15T04:07:29;2.40;99.90
39067;DHT22;24821;51.988;6.020;2023-02-15T04:09:54;2.40;99.90
39067;DHT22;24821;51.988;6.020;2023-02-15T04:12:39;2.40;99.90
39067;DHT22;24821;51.988;6.020;2023-02-15T04:15:04;2.30;99.90
39067;DHT22;24821;51.988;6.020;2023-02-15T04:17:48;2.30;99.90
39067;DHT22;24821;51.988;6.020;2023-02-15T04:20:14;2.30;99.90
39067;DHT22;24821;51.988;6.020;2023-02-15T04:22:58;2.30;99.90
39067;DHT22;24821;51.988;6.020;2023-02-15T04:25:42;2.30;99.90
39067;DHT22;24821;51.988;6.020;2023-02-15T04:28:07;2.30;99.90
39067;DHT22;24821;51.988;6.020;2023-02-15T04:30:33;2.30;99.90
39067;DHT22;24821;51.988;6.020;2023-02-15T04:32:58;2.30;99.90
39067;DHT22;24821;51.988;6.020;2023-02-15T04:35:24;2.30;99.90
39067;DHT22;24821;51.988;6.020;2023-02-15T04:37:50;2.30;99.90
39067;DHT22;24821;51.988;6.020;2023-02-15T04:40:17;2.30;99.90
39067;DHT22;24821;51.988;6.020;2023-02-15T04:42:43;2.20;99.90
39067;DHT22;24821;51.988;6.020;2023-02-15T04:45:08;2.20;99.90
39067;DHT22;24821;51.988;6.020;2023-02-15T04:47:34;2.20;99.90
39067;DHT22;24821;51.988;6.020;2023-02-15T04:49:59;2.20;99.90
39067;DHT22;24821;51.988;6.020;2023-02-15T04:52:25;2.20;99.90
39067;DHT22;24821;51.988;6.020;2023-02-15T04:54:51;2.20;99.90
39067;DHT22;24821;51.988;6.020;2023-02-15T04:57:16;2.20;99.90
39067;DHT22;24821;51.988;6.020;2023-02-15T04:59:42;2.10;99.90
39067;DHT22;24821;51.988;6.020;2023-02-15T05:02:07;2.10;99.90
39067;DHT22;24821;51.988;6.020;2023-02-15T05:04:34;2.10;99.90
39067;DHT22;24821;51.988;6.020;2023-02-15T05:06:59;2.10;99.90
39067;DHT22;24821;51.988;6.020;2023-02-15T05:09:25;2.00;99.90
39067;DHT22;24821;51.988;6.020;2023-02-15T05:11:50;2.00;99.90
39067;DHT22;24821;51.988;6.020;2023-02-15T05:14:16;2.00;99.90
39067;DHT22;24821;51.988;6.020;2023-02-15T05:16:41;2.00;99.90
39067;DHT22;24821;51.988;6.020;2023-02-15T05:19:07;2.00;99.90
39067;DHT22;24821;51.988;6.020;2023-02-15T05:21:33;1.90;99.90
39067;DHT22;24821;51.988;6.020;2023-02-15T05:23:58;1.90;99.90
39067;DHT22;24821;51.988;6.020;2023-02-15T05:26:25;1.90;99.90
39067;DHT22;24821;51.988;6.020;2023-02-15T05:29:09;1.90;99.90
39067;DHT22;24821;51.988;6.020;2023-02-15T05:31:35;1.90;99.90
39067;DHT22;24821;51.988;6.020;2023-02-15T05:34:00;1.80;99.90
39067;DHT22;24821;51.988;6.020;2023-02-15T05:36:26;1.80;99.90
39067;DHT22;24821;51.988;6.020;2023-02-15T05:38:52;1.80;99.90
39067;DHT22;24821;51.988;6.020;2023-02-15T05:41:17;1.80;99.90
39067;DHT22;24821;51.988;6.020;2023-02-15T05:43:43;1.80;99.90
39067;DHT22;24821;51.988;6.020;2023-02-15T05:46:09;1.80;99.90
39067;DHT22;24821;51.988;6.020;2023-02-15T05:48:35;1.80;99.90
39067;DHT22;24821;51.988;6.020;2023-02-15T05:53:27;1.80;99.90
39067;DHT22;24821;51.988;6.020;2023-02-15T05:55:54;1.80;99.90
39067;DHT22;24821;51.988;6.020;2023-02-15T05:58:31;1.80;99.90
39067;DHT22;24821;51.988;6.020;2023-02-15T06:00:57;1.80;99.90
39067;DHT22;24821;51.988;6.020;2023-02-15T06:03:23;1.80;99.90
39067;DHT22;24821;51.988;6.020;2023-02-15T06:05:51;1.80;99.90
39067;DHT22;24821;51.988;6.020;2023-02-15T06:08:17;1.80;99.90
39067;DHT22;24821;51.988;6.020;2023-02-15T06:10:42;1.80;99.90
39067;DHT22;24821;51.988;6.020;2023-02-15T06:13:08;1.80;99.90
39067;DHT22;24821;51.988;6.020;2023-02-15T06:15:33;1.70;99.90
39067;DHT22;24821;51.988;6.020;2023-02-15T06:17:59;1.70;99.90
39067;DHT22;24821;51.988;6.020;2023-02-15T06:20:25;1.70;99.90
39067;DHT22;24821;51.988;6.020;2023-02-15T06:22:50;1.70;99.90
39067;DHT22;24821;51.988;6.020;2023-02-15T06:25:16;1.70;99.90
39067;DHT22;24821;51.988;6.020;2023-02-15T06:27:42;1.70;99.90
39067;DHT22;24821;51.988;6.020;2023-02-15T06:30:08;1.70;99.90
39067;DHT22;24821;51.988;6.020;2023-02-15T06:32:34;1.70;99.90
39067;DHT22;24821;51.988;6.020;2023-02-15T06:35:00;1.70;99.90
39067;DHT22;24821;51.988;6.020;2023-02-15T06:37:26;1.70;99.90
39067;DHT22;24821;51.988;6.020;2023-02-15T06:39:51;1.70;99.90
39067;DHT22;24821;51.988;6.020;2023-02-15T06:42:17;1.70;99.90
39067;DHT22;24821;51.988;6.020;2023-02-15T06:44:43;1.70;99.90
39067;DHT22;24821;51.988;6.020;2023-02-15T06:47:09;1.70;99.90
39067;DHT22;24821;51.988;6.020;2023-02-15T06:49:36;1.70;99.90
39067;DHT22;24821;51.988;6.020;2023-02-15T06:52:01;1.70;99.90
39067;DHT22;24821;51.988;6.020;2023-02-15T06:54:27;1.70;99.90
39067;DHT22;24821;51.988;6.020;2023-02-15T06:56:53;1.70;99.90
39067;DHT22;24821;51.988;6.020;2023-02-15T06:59:18;1.70;99.90
39067;DHT22;24821;51.988;6.020;2023-02-15T07:01:44;1.60;99.90
39067;DHT22;24821;51.988;6.020;2023-02-15T07:04:09;1.60;99.90
39067;DHT22;24821;51.988;6.020;2023-02-15T07:06:35;1.60;99.90
39067;DHT22;24821;51.988;6.020;2023-02-15T07:09:01;1.60;99.90
39067;DHT22;24821;51.988;6.020;2023-02-15T07:11:27;1.70;99.90
39067;DHT22;24821;51.988;6.020;2023-02-15T07:14:12;1.60;99.90
39067;DHT22;24821;51.988;6.020;2023-02-15T07:16:38;1.60;99.90
39067;DHT22;24821;51.988;6.020;2023-02-15T07:19:03;1.70;99.90
39067;DHT22;24821;51.988;6.020;2023-02-15T07:21:29;1.70;99.90
39067;DHT22;24821;51.988;6.020;2023-02-15T07:23:58;1.80;99.90
39067;DHT22;24821;51.988;6.020;2023-02-15T07:26:23;1.80;99.90
39067;DHT22;24821;51.988;6.020;2023-02-15T07:28:49;1.80;99.90
39067;DHT22;24821;51.988;6.020;2023-02-15T07:31:15;1.90;99.90
39067;DHT22;24821;51.988;6.020;2023-02-15T07:33:40;2.00;99.90
39067;DHT22;24821;51.988;6.020;2023-02-15T07:36:07;2.00;99.90
39067;DHT22;24821;51.988;6.020;2023-02-15T07:38:39;2.20;99.90
39067;DHT22;24821;51.988;6.020;2023-02-15T07:41:10;2.30;99.90
39067;DHT22;24821;51.988;6.020;2023-02-15T07:43:39;2.40;99.90
39067;DHT22;24821;51.988;6.020;2023-02-15T07:46:08;2.50;99.90
39067;DHT22;24821;51.988;6.020;2023-02-15T07:48:35;2.60;99.90
39067;DHT22;24821;51.988;6.020;2023-02-15T07:51:03;2.80;99.90
39067;DHT22;24821;51.988;6.020;2023-02-15T07:53:29;3.00;99.90
39067;DHT22;24821;51.988;6.020;2023-02-15T07:55:58;3.20;99.90
39067;DHT22;24821;51.988;6.020;2023-02-15T07:58:24;3.40;99.90
39067;DHT22;24821;51.988;6.020;2023-02-15T08:01:10;3.40;99.90
39067;DHT22;24821;51.988;6.020;2023-02-15T08:03:36;3.40;99.90
39067;DHT22;24821;51.988;6.020;2023-02-15T08:06:01;3.40;99.90
39067;DHT22;24821;51.988;6.020;2023-02-15T08:08:27;3.50;99.90
39067;DHT22;24821;51.988;6.020;2023-02-15T08:13:48;3.50;99.90
39067;DHT22;24821;51.988;6.020;2023-02-15T08:16:26;3.50;99.90
39067;DHT22;24821;51.988;6.020;2023-02-15T08:18:53;3.60;99.90
39067;DHT22;24821;51.988;6.020;2023-02-15T08:21:19;3.60;99.90
39067;DHT22;24821;51.988;6.020;2023-02-15T08:23:45;3.50;99.90
39067;DHT22;24821;51.988;6.020;2023-02-15T08:26:11;3.60;99.90
39067;DHT22;24821;51.988;6.020;2023-02-15T08:28:36;3.50;99.90
39067;DHT22;24821;51.988;6.020;2023-02-15T08:31:12;3.50;99.90
39067;DHT22;24821;51.988;6.020;2023-02-15T08:33:39;3.50;99.90
39067;DHT22;24821;51.988;6.020;2023-02-15T08:36:09;3.50;99.90
39067;DHT22;24821;51.988;6.020;2023-02-15T08:38:36;3.50;99.90
39067;DHT22;24821;51.988;6.020;2023-02-15T08:43:39;3.60;99.90
39067;DHT22;24821;51.988;6.020;2023-02-15T08:46:09;3.60;99.90
39067;DHT22;24821;51.988;6.020;2023-02-15T08:48:35;3.60;99.90
39067;DHT22;24821;51.988;6.020;2023-02-15T08:51:11;3.60;99.90
39067;DHT22;24821;51.988;6.020;2023-02-15T08:53:39;3.70;99.90
39067;DHT22;24821;51.988;6.020;2023-02-15T08:56:05;3.70;99.90
39067;DHT22;24821;51.988;6.020;2023-02-15T08:58:31;3.70;99.90
39067;DHT22;24821;51.988;6.020;2023-02-15T09:00:57;3.80;99.90
39067;DHT22;24821;51.988;6.020;2023-02-15T09:03:23;3.80;99.90
39067;DHT22;24821;51.988;6.020;2023-02-15T09:05:49;3.90;99.90
39067;DHT22;24821;51.988;6.020;2023-02-15T09:08:15;4.00;99.90
39067;DHT22;24821;51.988;6.020;2023-02-15T09:10:40;4.10;99.90
39067;DHT22;24821;51.988;6.020;2023-02-15T09:13:06;4.20;99.90
39067;DHT22;24821;51.988;6.020;2023-02-15T09:15:32;4.20;99.90
39067;DHT22;24821;51.988;6.020;2023-02-15T09:17:57;4.30;99.90
39067;DHT22;24821;51.988;6.020;2023-02-15T09:20:27;4.40;99.90
39067;DHT22;24821;51.988;6.020;2023-02-15T09:22:53;4.50;99.90
39067;DHT22;24821;51.988;6.020;2023-02-15T09:25:19;4.50;99.90
39067;DHT22;24821;51.988;6.020;2023-02-15T09:27:45;4.60;99.90
39067;DHT22;24821;51.988;6.020;2023-02-15T09:30:11;4.70;99.90
39067;DHT22;24821;51.988;6.020;2023-02-15T09:32:37;4.80;99.90
39067;DHT22;24821;51.988;6.020;2023-02-15T09:35:03;4.90;99.90
39067;DHT22;24821;51.988;6.020;2023-02-15T09:37:30;4.90;99.90
39067;DHT22;24821;51.988;6.020;2023-02-15T09:39:57;5.00;99.90
39067;DHT22;24821;51.988;6.020;2023-02-15T09:46:26;5.20;99.90
39067;DHT22;24821;51.988;6.020;2023-02-15T09:51:49;5.40;99.90
39067;DHT22;24821;51.988;6.020;2023-02-15T09:54:23;5.50;99.90
39067;DHT22;24821;51.988;6.020;2023-02-15T09:56:54;5.70;99.90
39067;DHT22;24821;51.988;6.020;2023-02-15T09:59:44;5.70;99.90
39067;DHT22;24821;51.988;6.020;2023-02-15T10:05:12;6.00;99.90
39067;DHT22;24821;51.988;6.020;2023-02-15T10:07:56;6.00;99.90
39067;DHT22;24821;51.988;6.020;2023-02-15T10:10:54;6.10;99.90
39067;DHT22;24821;51.988;6.020;2023-02-15T10:13:34;6.20;99.90
39067;DHT22;24821;51.988;6.020;2023-02-15T10:23:53;6.60;99.90
39067;DHT22;24821;51.988;6.020;2023-02-15T10:26:22;6.70;99.90
39067;DHT22;24821;51.988;6.020;2023-02-15T10:29:30;6.80;99.90
39067;DHT22;24821;51.988;6.020;2023-02-15T10:32:26;7.00;99.90
39067;DHT22;24821;51.988;6.020;2023-02-15T10:37:47;7.20;99.90
39067;DHT22;24821;51.988;6.020;2023-02-15T10:43:14;7.40;99.90
39067;DHT22;24821;51.988;6.020;2023-02-15T10:46:48;7.40;99.90
39067;DHT22;24821;51.988;6.020;2023-02-15T10:48:59;7.50;99.90
39067;DHT22;24821;51.988;6.020;2023-02-15T10:51:42;7.60;99.90
39067;DHT22;24821;51.988;6.020;2023-02-15T10:54:32;7.70;99.90
39067;DHT22;24821;51.988;6.020;2023-02-15T10:57:24;7.80;99.90
39067;DHT22;24821;51.988;6.020;2023-02-15T11:00:15;8.00;99.90
39067;DHT22;24821;51.988;6.020;2023-02-15T11:03:05;8.10;99.90
39067;DHT22;24821;51.988;6.020;2023-02-15T11:05:45;8.20;99.90
39067;DHT22;24821;51.988;6.020;2023-02-15T11:08:15;8.20;99.90
39067;DHT22;24821;51.988;6.020;2023-02-15T11:10:51;8.20;99.90
39067;DHT22;24821;51.988;6.020;2023-02-15T11:13:21;8.30;99.90
39067;DHT22;24821;51.988;6.020;2023-02-15T11:15:55;8.50;99.90
39067;DHT22;24821;51.988;6.020;2023-02-15T11:18:27;8.60;99.90
39067;DHT22;24821;51.988;6.020;2023-02-15T11:23:50;8.80;99.90
39067;DHT22;24821;51.988;6.020;2023-02-15T11:26:31;8.80;99.90
39067;DHT22;24821;51.988;6.020;2023-02-15T11:31:53;9.00;99.90
39067;DHT22;24821;51.988;6.020;2023-02-15T11:34:27;9.20;99.90
39067;DHT22;24821;51.988;6.020;2023-02-15T11:36:55;9.20;99.90
39067;DHT22;24821;51.988;6.020;2023-02-15T11:39:26;9.20;99.90
39067;DHT22;24821;51.988;6.020;2023-02-15T11:41:57;9.30;99.90
39067;DHT22;24821;51.988;6.020;2023-02-15T11:44:30;9.30;99.90
39067;DHT22;24821;51.988;6.020;2023-02-15T11:46:58;9.40;99.90
39067;DHT22;24821;51.988;6.020;2023-02-15T11:49:33;9.50;99.90
39067;DHT22;24821;51.988;6.020;2023-02-15T11:52:02;9.50;99.90
39067;DHT22;24821;51.988;6.020;2023-02-15T11:54:32;9.60;99.90
39067;DHT22;24821;51.988;6.020;2023-02-15T11:57:19;9.70;99.90
39067;DHT22;24821;51.988;6.020;2023-02-15T12:02:37;9.90;99.90
39067;DHT22;24821;51.988;6.020;2023-02-15T12:05:07;9.90;99.90
39067;DHT22;24821;51.988;6.020;2023-02-15T12:07:37;10.00;99.90
39067;DHT22;24821;51.988;6.020;2023-02-15T12:10:20;10.10;99.90
39067;DHT22;24821;51.988;6.020;2023-02-15T12:12:48;10.10;99.90
39067;DHT22;24821;51.988;6.020;2023-02-15T12:15:14;10.20;99.90
39067;DHT22;24821;51.988;6.020;2023-02-15T12:17:51;10.20;99.90
39067;DHT22;24821;51.988;6.020;2023-02-15T12:22:50;10.30;99.90
39067;DHT22;24821;51.988;6.020;2023-02-15T12:26:10;10.50;99.90
39067;DHT22;24821;51.988;6.020;2023-02-15T12:28:40;10.50;99.90
39067;DHT22;24821;51.988;6.020;2023-02-15T12:34:01;10.70;99.90
39067;DHT22;24821;51.988;6.020;2023-02-15T12:36:42;10.70;99.90
39067;DHT22;24821;51.988;6.020;2023-02-15T12:41:37;10.90;99.90
39067;DHT22;24821;51.988;6.020;2023-02-15T12:44:21;10.90;99.90
39067;DHT22;24821;51.988;6.020;2023-02-15T12:49:22;11.00;99.90
39067;DHT22;24821;51.988;6.020;2023-02-15T12:51:50;11.00;99.90
39067;DHT22;24821;51.988;6.020;2023-02-15T12:57:31;11.10;99.90
39067;DHT22;24821;51.988;6.020;2023-02-15T13:00:04;11.20;99.90
39067;DHT22;24821;51.988;6.020;2023-02-15T13:02:51;11.20;99.90
39067;DHT22;24821;51.988;6.020;2023-02-15T13:05:33;11.30;99.90
39067;DHT22;24821;51.988;6.020;2023-02-15T13:10:35;11.50;99.90
39067;DHT22;24821;51.988;6.020;2023-02-15T13:13:01;11.50;99.90
39067;DHT22;24821;51.988;6.020;2023-02-15T13:15:34;11.50;99.90
39067;DHT22;24821;51.988;6.020;2023-02-15T13:18:01;11.50;99.90
39067;DHT22;24821;51.988;6.020;2023-02-15T13:20:28;11.50;99.90
39067;DHT22;24821;51.988;6.020;2023-02-15T13:22:59;11.50;99.90
39067;DHT22;24821;51.988;6.020;2023-02-15T13:25:29;11.50;99.90
39067;DHT22;24821;51.988;6.020;2023-02-15T13:28:01;11.50;99.90
39067;DHT22;24821;51.988;6.020;2023-02-15T13:30:32;11.50;99.90
39067;DHT22;24821;51.988;6.020;2023-02-15T13:33:05;11.50;99.90
39067;DHT22;24821;51.988;6.020;2023-02-15T13:38:58;11.50;99.90
39067;DHT22;24821;51.988;6.020;2023-02-15T13:41:43;11.40;99.90
39067;DHT22;24821;51.988;6.020;2023-02-15T13:47:21;11.50;99.90
39067;DHT22;24821;51.988;6.020;2023-02-15T13:50:00;11.50;99.90
39067;DHT22;24821;51.988;6.020;2023-02-15T13:52:33;11.50;99.90
39067;DHT22;24821;51.988;6.020;2023-02-15T14:11:48;11.70;99.90
39067;DHT22;24821;51.988;6.020;2023-02-15T14:14:24;11.80;99.90
39067;DHT22;24821;51.988;6.020;2023-02-15T14:19:48;11.80;99.90
39067;DHT22;24821;51.988;6.020;2023-02-15T14:22:35;11.80;99.90
39067;DHT22;24821;51.988;6.020;2023-02-15T14:28:27;11.70;99.90
39067;DHT22;24821;51.988;6.020;2023-02-15T14:30:56;11.80;99.90
39067;DHT22;24821;51.988;6.020;2023-02-15T14:33:35;11.70;99.90
39067;DHT22;24821;51.988;6.020;2023-02-15T14:36:04;11.70;99.90
39067;DHT22;24821;51.988;6.020;2023-02-15T14:41:58;11.70;99.90
39067;DHT22;24821;51.988;6.020;2023-02-15T14:45:19;11.70;99.90
39067;DHT22;24821;51.988;6.020;2023-02-15T14:47:39;11.70;99.90
39067;DHT22;24821;51.988;6.020;2023-02-15T14:53:39;11.70;99.90
39067;DHT22;24821;51.988;6.020;2023-02-15T14:58:36;11.70;99.90
39067;DHT22;24821;51.988;6.020;2023-02-15T15:01:10;11.70;99.90
39067;DHT22;24821;51.988;6.020;2023-02-15T15:03:36;11.70;99.90
39067;DHT22;24821;51.988;6.020;2023-02-15T15:06:27;11.60;99.90
39067;DHT22;24821;51.988;6.020;2023-02-15T15:08:55;11.60;99.90
39067;DHT22;24821;51.988;6.020;2023-02-15T15:13:59;11.60;99.90
39067;DHT22;24821;51.988;6.020;2023-02-15T15:16:48;11.50;99.90
39067;DHT22;24821;51.988;6.020;2023-02-15T15:19:57;11.60;99.90
39067;DHT22;24821;51.988;6.020;2023-02-15T15:22:25;11.50;99.90
39067;DHT22;24821;51.988;6.020;2023-02-15T15:24:59;11.50;99.90
39067;DHT22;24821;51.988;6.020;2023-02-15T15:41:17;11.30;99.90
39067;DHT22;24821;51.988;6.020;2023-02-15T15:44:06;11.30;99.90
39067;DHT22;24821;51.988;6.020;2023-02-15T15:46:54;11.20;99.90
39067;DHT22;24821;51.988;6.020;2023-02-15T15:49:29;11.10;99.90
39067;DHT22;24821;51.988;6.020;2023-02-15T15:52:00;11.10;99.90
39067;DHT22;24821;51.988;6.020;2023-02-15T15:54:26;11.00;99.90
39067;DHT22;24821;51.988;6.020;2023-02-15T15:56:58;11.00;99.90
39067;DHT22;24821;51.988;6.020;2023-02-15T15:59:28;10.90;99.90
39067;DHT22;24821;51.988;6.020;2023-02-15T16:01:55;10.90;99.90
39067;DHT22;24821;51.988;6.020;2023-02-15T16:04:26;10.80;99.90
39067;DHT22;24821;51.988;6.020;2023-02-15T16:06:53;10.80;99.90
39067;DHT22;24821;51.988;6.020;2023-02-15T16:09:21;10.70;99.90
39067;DHT22;24821;51.988;6.020;2023-02-15T16:11:57;10.70;99.90
39067;DHT22;24821;51.988;6.020;2023-02-15T16:14:35;10.60;99.90
39067;DHT22;24821;51.988;6.020;2023-02-15T16:17:04;10.60;99.90
39067;DHT22;24821;51.988;6.020;2023-02-15T16:19:37;10.50;99.90
39067;DHT22;24821;51.988;6.020;2023-02-15T16:22:09;10.50;99.90
39067;DHT22;24821;51.988;6.020;2023-02-15T16:25:24;10.40;99.90
39067;DHT22;24821;51.988;6.020;2023-02-15T16:27:41;10.40;99.90
39067;DHT22;24821;51.988;6.020;2023-02-15T16:30:33;10.30;99.90
39067;DHT22;24821;51.988;6.020;2023-02-15T16:33:10;10.30;99.90
39067;DHT22;24821;51.988;6.020;2023-02-15T16:35:52;10.10;99.90
39067;DHT22;24821;51.988;6.020;2023-02-15T16:38:30;10.10;99.90
39067;DHT22;24821;51.988;6.020;2023-02-15T16:40:59;10.00;99.90
39067;DHT22;24821;51.988;6.020;2023-02-15T16:43:29;9.90;99.90
39067;DHT22;24821;51.988;6.020;2023-02-15T16:46:04;9.90;99.90
39067;DHT22;24821;51.988;6.020;2023-02-15T16:48:31;9.90;99.90
39067;DHT22;24821;51.988;6.020;2023-02-15T16:50:58;9.80;99.90
39067;DHT22;24821;51.988;6.020;2023-02-15T16:53:27;9.80;99.90
39067;DHT22;24821;51.988;6.020;2023-02-15T16:55:58;9.70;99.90
39067;DHT22;24821;51.988;6.020;2023-02-15T16:58:37;9.70;99.90
39067;DHT22;24821;51.988;6.020;2023-02-15T17:01:06;9.70;99.90
39067;DHT22;24821;51.988;6.020;2023-02-15T17:03:33;9.70;99.90
39067;DHT22;24821;51.988;6.020;2023-02-15T17:06:00;9.60;99.90
39067;DHT22;24821;51.988;6.020;2023-02-15T17:08:33;9.60;99.90
39067;DHT22;24821;51.988;6.020;2023-02-15T17:13:26;9.50;99.90
39067;DHT22;24821;51.988;6.020;2023-02-15T17:18:33;9.50;99.90
39067;DHT22;24821;51.988;6.020;2023-02-15T17:21:01;9.40;99.90
39067;DHT22;24821;51.988;6.020;2023-02-15T17:23:34;9.40;99.90
39067;DHT22;24821;51.988;6.020;2023-02-15T17:26:12;9.30;99.90
39067;DHT22;24821;51.988;6.020;2023-02-15T17:28:49;9.30;99.90
39067;DHT22;24821;51.988;6.020;2023-02-15T17:31:17;9.30;99.90
39067;DHT22;24821;51.988;6.020;2023-02-15T17:33:43;9.30;99.90
39067;DHT22;24821;51.988;6.020;2023-02-15T17:36:19;9.30;99.90
39067;DHT22;24821;51.988;6.020;2023-02-15T17:39:06;9.30;99.90
39067;DHT22;24821;51.988;6.020;2023-02-15T17:41:43;9.30;99.90
39067;DHT22;24821;51.988;6.020;2023-02-15T17:44:09;9.20;99.90
39067;DHT22;24821;51.988;6.020;2023-02-15T17:46:39;9.20;99.90
39067;DHT22;24821;51.988;6.020;2023-02-15T17:49:05;9.20;99.90
39067;DHT22;24821;51.988;6.020;2023-02-15T17:51:30;9.20;99.90
39067;DHT22;24821;51.988;6.020;2023-02-15T17:53:56;9.20;99.90
39067;DHT22;24821;51.988;6.020;2023-02-15T17:56:40;9.30;99.90
39067;DHT22;24821;51.988;6.020;2023-02-15T17:59:06;9.20;99.90
39067;DHT22;24821;51.988;6.020;2023-02-15T18:01:33;9.30;99.90
39067;DHT22;24821;51.988;6.020;2023-02-15T18:04:18;9.20;99.90
39067;DHT22;24821;51.988;6.020;2023-02-15T18:07:03;9.20;99.90
39067;DHT22;24821;51.988;6.020;2023-02-15T18:09:47;9.20;99.90
39067;DHT22;24821;51.988;6.020;2023-02-15T18:12:33;9.10;99.90
39067;DHT22;24821;51.988;6.020;2023-02-15T18:15:00;9.00;99.90
39067;DHT22;24821;51.988;6.020;2023-02-15T18:17:30;8.90;99.90
39067;DHT22;24821;51.988;6.020;2023-02-15T18:19:57;8.90;99.90
39067;DHT22;24821;51.988;6.020;2023-02-15T18:22:23;8.80;99.90
39067;DHT22;24821;51.988;6.020;2023-02-15T18:24:48;8.80;99.90
39067;DHT22;24821;51.988;6.020;2023-02-15T18:27:15;8.80;99.90
39067;DHT22;24821;51.988;6.020;2023-02-15T18:29:41;8.70;99.90
39067;DHT22;24821;51.988;6.020;2023-02-15T18:32:09;8.70;99.90